sensor_id;sensor_type;location;lat;lon;timestamp;P1;durP1;ratioP1;P2;durP2;ratioP2
39874;SDS011;25547;52.530;13.194;2022-10-15T00:00:40;14.13;;;8.38;;
39874;SDS011;25547;52.530;13.194;2022-10-15T00:03:06;12.93;;;8.55;;
39874;SDS011;25547;52.530;13.194;2022-10-15T00:05:31;15.57;;;8.40;;
39874;SDS011;25547;52.530;13.194;2022-10-15T00:08:00;15.57;;;10.10;;
39874;SDS011;25547;52.530;13.194;2022-10-15T00:10:25;20.85;;;10.32;;
39874;SDS011;25547;52.530;13.194;2022-10-15T00:12:51;35.03;;;19.13;;
39874;SDS011;25547;52.530;13.194;2022-10-15T00:15:16;17.85;;;10.52;;
39874;SDS011;25547;52.530;13.194;2022-10-15T00:17:42;14.95;;;9.82;;
39874;SDS011;25547;52.530;13.194;2022-10-15T00:20:12;14.40;;;9.35;;
39874;SDS011;25547;52.530;13.194;2022-10-15T00:22:38;14.02;;;9.98;;
39874;SDS011;25547;52.530;13.194;2022-10-15T00:25:04;18.42;;;11.00;;
39874;SDS011;25547;52.530;13.194;2022-10-15T00:27:30;14.82;;;9.27;;
39874;SDS011;25547;52.530;13.194;2022-10-15T00:30:00;15.68;;;9.15;;
39874;SDS011;25547;52.530;13.194;2022-10-15T00:32:27;24.13;;;12.30;;
39874;SDS011;25547;52.530;13.194;2022-10-15T00:34:58;18.90;;;10.63;;
39874;SDS011;25547;52.530;13.194;2022-10-15T00:37:24;13.90;;;9.60;;
39874;SDS011;25547;52.530;13.194;2022-10-15T00:39:49;19.40;;;10.77;;
39874;SDS011;25547;52.530;13.194;2022-10-15T00:42:15;17.20;;;9.75;;
39874;SDS011;25547;52.530;13.194;2022-10-15T00:47:23;17.75;;;9.75;;
39874;SDS011;25547;52.530;13.194;2022-10-15T00:49:58;15.93;;;10.60;;
39874;SDS011;25547;52.530;13.194;2022-10-15T00:52:44;18.15;;;11.57;;
39874;SDS011;25547;52.530;13.194;2022-10-15T00:55:26;15.32;;;9.85;;
39874;SDS011;25547;52.530;13.194;2022-10-15T00:58:01;21.48;;;11.45;;
39874;SDS011;25547;52.530;13.194;2022-10-15T01:00:33;20.08;;;11.07;;
39874;SDS011;25547;52.530;13.194;2022-10-15T01:02:58;19.40;;;10.65;;
39874;SDS011;25547;52.530;13.194;2022-10-15T01:05:24;21.70;;;11.65;;
39874;SDS011;25547;52.530;13.194;2022-10-15T01:07:50;15.30;;;10.95;;
39874;SDS011;25547;52.530;13.194;2022-10-15T01:10:16;18.80;;;10.70;;
39874;SDS011;25547;52.530;13.194;2022-10-15T01:13:01;18.80;;;11.18;;
39874;SDS011;25547;52.530;13.194;2022-10-15T01:15:43;20.05;;;10.25;;
39874;SDS011;25547;52.530;13.194;2022-10-15T01:18:14;17.02;;;10.43;;
39874;SDS011;25547;52.530;13.194;2022-10-15T01:23:40;15.15;;;10.15;;
39874;SDS011;25547;52.530;13.194;2022-10-15T01:32:01;19.35;;;10.68;;
39874;SDS011;25547;52.530;13.194;2022-10-15T01:35:06;15.98;;;9.77;;
39874;SDS011;25547;52.530;13.194;2022-10-15T01:37:36;17.63;;;11.82;;
39874;SDS011;25547;52.530;13.194;2022-10-15T01:43:02;15.82;;;10.23;;
39874;SDS011;25547;52.530;13.194;2022-10-15T01:48:18;19.60;;;11.75;;
39874;SDS011;25547;52.530;13.194;2022-10-15T01:50:49;16.35;;;10.63;;
39874;SDS011;25547;52.530;13.194;2022-10-15T01:53:23;17.80;;;10.98;;
39874;SDS011;25547;52.530;13.194;2022-10-15T01:55:55;18.00;;;10.43;;
39874;SDS011;25547;52.530;13.194;2022-10-15T01:58:25;16.25;;;10.13;;
39874;SDS011;25547;52.530;13.194;2022-10-15T02:00:53;17.38;;;10.93;;
39874;SDS011;25547;52.530;13.194;2022-10-15T02:03:21;19.50;;;10.80;;
39874;SDS011;25547;52.530;13.194;2022-10-15T02:05:55;16.30;;;9.95;;
39874;SDS011;25547;52.530;13.194;2022-10-15T02:08:43;16.15;;;10.05;;
39874;SDS011;25547;52.530;13.194;2022-10-15T02:11:16;13.90;;;9.02;;
39874;SDS011;25547;52.530;13.194;2022-10-15T02:16:37;18.13;;;10.38;;
39874;SDS011;25547;52.530;13.194;2022-10-15T02:19:32;15.43;;;10.27;;
39874;SDS011;25547;52.530;13.194;2022-10-15T02:22:11;16.58;;;11.05;;
39874;SDS011;25547;52.530;13.194;2022-10-15T02:27:25;16.08;;;10.88;;
39874;SDS011;25547;52.530;13.194;2022-10-15T02:29:54;16.02;;;10.10;;
39874;SDS011;25547;52.530;13.194;2022-10-15T02:32:21;14.57;;;9.82;;
39874;SDS011;25547;52.530;13.194;2022-10-15T02:34:49;18.45;;;9.93;;
39874;SDS011;25547;52.530;13.194;2022-10-15T02:37:19;19.03;;;10.20;;
39874;SDS011;25547;52.530;13.194;2022-10-15T02:39:47;15.45;;;10.48;;
39874;SDS011;25547;52.530;13.194;2022-10-15T02:42:13;17.60;;;10.63;;
39874;SDS011;25547;52.530;13.194;2022-10-15T02:44:41;14.00;;;10.18;;
39874;SDS011;25547;52.530;13.194;2022-10-15T02:47:06;18.48;;;11.30;;
39874;SDS011;25547;52.530;13.194;2022-10-15T02:49:35;15.60;;;10.45;;
39874;SDS011;25547;52.530;13.194;2022-10-15T02:52:03;15.68;;;10.98;;
39874;SDS011;25547;52.530;13.194;2022-10-15T02:54:29;15.38;;;11.10;;
39874;SDS011;25547;52.530;13.194;2022-10-15T02:56:55;18.58;;;11.57;;
39874;SDS011;25547;52.530;13.194;2022-10-15T02:59:20;17.90;;;10.27;;
39874;SDS011;25547;52.530;13.194;2022-10-15T03:01:46;16.38;;;10.73;;
39874;SDS011;25547;52.530;13.194;2022-10-15T03:04:12;18.73;;;10.77;;
39874;SDS011;25547;52.530;13.194;2022-10-15T03:06:37;18.05;;;11.15;;
39874;SDS011;25547;52.530;13.194;2022-10-15T03:09:03;15.15;;;10.48;;
39874;SDS011;25547;52.530;13.194;2022-10-15T03:11:31;15.45;;;9.65;;
39874;SDS011;25547;52.530;13.194;2022-10-15T03:13:59;18.70;;;10.93;;
39874;SDS011;25547;52.530;13.194;2022-10-15T03:16:25;18.38;;;10.85;;
39874;SDS011;25547;52.530;13.194;2022-10-15T03:18:50;24.13;;;12.20;;
39874;SDS011;25547;52.530;13.194;2022-10-15T03:21:16;17.85;;;11.18;;
39874;SDS011;25547;52.530;13.194;2022-10-15T03:23:41;19.85;;;11.90;;
39874;SDS011;25547;52.530;13.194;2022-10-15T03:26:07;22.55;;;11.13;;
39874;SDS011;25547;52.530;13.194;2022-10-15T03:28:32;17.15;;;10.45;;
39874;SDS011;25547;52.530;13.194;2022-10-15T03:30:58;16.80;;;11.27;;
39874;SDS011;25547;52.530;13.194;2022-10-15T03:33:24;16.67;;;11.82;;
39874;SDS011;25547;52.530;13.194;2022-10-15T03:35:49;17.55;;;10.52;;
39874;SDS011;25547;52.530;13.194;2022-10-15T03:38:16;15.93;;;10.20;;
39874;SDS011;25547;52.530;13.194;2022-10-15T03:40:42;16.30;;;9.07;;
39874;SDS011;25547;52.530;13.194;2022-10-15T03:43:09;15.98;;;9.40;;
39874;SDS011;25547;52.530;13.194;2022-10-15T03:45:37;15.68;;;10.15;;
39874;SDS011;25547;52.530;13.194;2022-10-15T03:48:03;20.42;;;10.88;;
39874;SDS011;25547;52.530;13.194;2022-10-15T03:50:31;17.02;;;10.38;;
39874;SDS011;25547;52.530;13.194;2022-10-15T03:52:56;12.68;;;8.82;;
39874;SDS011;25547;52.530;13.194;2022-10-15T03:55:22;17.27;;;10.15;;
39874;SDS011;25547;52.530;13.194;2022-10-15T03:57:50;20.25;;;10.93;;
39874;SDS011;25547;52.530;13.194;2022-10-15T04:00:18;17.70;;;10.27;;
39874;SDS011;25547;52.530;13.194;2022-10-15T04:02:44;15.60;;;10.07;;
39874;SDS011;25547;52.530;13.194;2022-10-15T04:05:09;22.50;;;11.35;;
39874;SDS011;25547;52.530;13.194;2022-10-15T04:07:35;17.35;;;9.95;;
39874;SDS011;25547;52.530;13.194;2022-10-15T04:10:00;18.48;;;11.60;;
39874;SDS011;25547;52.530;13.194;2022-10-15T04:12:30;17.15;;;11.20;;
39874;SDS011;25547;52.530;13.194;2022-10-15T04:14:55;16.48;;;11.65;;
39874;SDS011;25547;52.530;13.194;2022-10-15T04:17:21;19.98;;;11.05;;
39874;SDS011;25547;52.530;13.194;2022-10-15T04:19:46;15.40;;;10.82;;
39874;SDS011;25547;52.530;13.194;2022-10-15T04:22:14;19.77;;;10.90;;
39874;SDS011;25547;52.530;13.194;2022-10-15T04:24:40;18.15;;;10.60;;
39874;SDS011;25547;52.530;13.194;2022-10-15T04:27:11;16.10;;;9.52;;
39874;SDS011;25547;52.530;13.194;2022-10-15T04:29:37;17.05;;;10.63;;
39874;SDS011;25547;52.530;13.194;2022-10-15T04:32:03;14.57;;;10.18;;
39874;SDS011;25547;52.530;13.194;2022-10-15T04:34:29;21.60;;;11.48;;
39874;SDS011;25547;52.530;13.194;2022-10-15T04:36:57;15.95;;;11.15;;
39874;SDS011;25547;52.530;13.194;2022-10-15T04:39:22;16.75;;;9.82;;
39874;SDS011;25547;52.530;13.194;2022-10-15T04:41:48;18.65;;;10.80;;
39874;SDS011;25547;52.530;13.194;2022-10-15T04:44:18;15.18;;;10.23;;
39874;SDS011;25547;52.530;13.194;2022-10-15T04:46:43;15.45;;;10.65;;
39874;SDS011;25547;52.530;13.194;2022-10-15T04:49:09;16.80;;;9.43;;
39874;SDS011;25547;52.530;13.194;2022-10-15T04:51:34;15.85;;;10.13;;
39874;SDS011;25547;52.530;13.194;2022-10-15T04:54:02;16.90;;;10.23;;
39874;SDS011;25547;52.530;13.194;2022-10-15T04:56:30;18.50;;;10.73;;
39874;SDS011;25547;52.530;13.194;2022-10-15T04:58:56;17.27;;;10.45;;
39874;SDS011;25547;52.530;13.194;2022-10-15T05:01:23;18.65;;;11.90;;
39874;SDS011;25547;52.530;13.194;2022-10-15T05:03:49;15.98;;;10.32;;
39874;SDS011;25547;52.530;13.194;2022-10-15T05:06:16;17.52;;;10.07;;
39874;SDS011;25547;52.530;13.194;2022-10-15T05:08:50;16.85;;;11.50;;
39874;SDS011;25547;52.530;13.194;2022-10-15T05:11:21;14.05;;;9.63;;
39874;SDS011;25547;52.530;13.194;2022-10-15T05:13:51;16.10;;;9.88;;
39874;SDS011;25547;52.530;13.194;2022-10-15T05:16:19;19.23;;;12.05;;
39874;SDS011;25547;52.530;13.194;2022-10-15T05:18:50;18.60;;;9.43;;
39874;SDS011;25547;52.530;13.194;2022-10-15T05:21:19;20.55;;;10.35;;
39874;SDS011;25547;52.530;13.194;2022-10-15T05:23:47;15.05;;;9.75;;
39874;SDS011;25547;52.530;13.194;2022-10-15T05:26:15;15.13;;;9.43;;
39874;SDS011;25547;52.530;13.194;2022-10-15T05:28:45;16.63;;;10.07;;
39874;SDS011;25547;52.530;13.194;2022-10-15T05:31:16;16.75;;;10.40;;
39874;SDS011;25547;52.530;13.194;2022-10-15T05:33:43;18.52;;;10.32;;
39874;SDS011;25547;52.530;13.194;2022-10-15T05:38:46;17.98;;;11.00;;
39874;SDS011;25547;52.530;13.194;2022-10-15T05:41:14;14.63;;;10.07;;
39874;SDS011;25547;52.530;13.194;2022-10-15T05:43:41;17.35;;;10.52;;
39874;SDS011;25547;52.530;13.194;2022-10-15T05:46:12;17.10;;;10.07;;
39874;SDS011;25547;52.530;13.194;2022-10-15T05:48:37;19.70;;;11.88;;
39874;SDS011;25547;52.530;13.194;2022-10-15T05:51:04;18.15;;;11.48;;
39874;SDS011;25547;52.530;13.194;2022-10-15T05:53:41;14.38;;;9.23;;
39874;SDS011;25547;52.530;13.194;2022-10-15T05:56:10;15.52;;;10.05;;
39874;SDS011;25547;52.530;13.194;2022-10-15T05:58:39;17.65;;;10.10;;
39874;SDS011;25547;52.530;13.194;2022-10-15T06:01:09;14.05;;;9.35;;
39874;SDS011;25547;52.530;13.194;2022-10-15T06:03:37;13.43;;;9.50;;
39874;SDS011;25547;52.530;13.194;2022-10-15T06:06:23;14.70;;;10.05;;
39874;SDS011;25547;52.530;13.194;2022-10-15T06:08:52;14.80;;;8.65;;
39874;SDS011;25547;52.530;13.194;2022-10-15T06:11:20;16.63;;;8.82;;
39874;SDS011;25547;52.530;13.194;2022-10-15T06:13:46;15.52;;;8.75;;
39874;SDS011;25547;52.530;13.194;2022-10-15T06:16:12;16.20;;;10.43;;
39874;SDS011;25547;52.530;13.194;2022-10-15T06:18:41;15.55;;;9.32;;
39874;SDS011;25547;52.530;13.194;2022-10-15T06:21:09;14.40;;;9.48;;
39874;SDS011;25547;52.530;13.194;2022-10-15T06:23:36;17.33;;;10.02;;
39874;SDS011;25547;52.530;13.194;2022-10-15T06:26:05;14.23;;;8.90;;
39874;SDS011;25547;52.530;13.194;2022-10-15T06:28:33;11.75;;;7.35;;
39874;SDS011;25547;52.530;13.194;2022-10-15T06:31:04;14.93;;;9.35;;
39874;SDS011;25547;52.530;13.194;2022-10-15T06:33:30;14.48;;;8.35;;
39874;SDS011;25547;52.530;13.194;2022-10-15T06:36:03;10.18;;;7.95;;
39874;SDS011;25547;52.530;13.194;2022-10-15T06:38:31;12.15;;;7.70;;
39874;SDS011;25547;52.530;13.194;2022-10-15T06:40:57;11.52;;;7.45;;
39874;SDS011;25547;52.530;13.194;2022-10-15T06:43:23;15.13;;;8.38;;
39874;SDS011;25547;52.530;13.194;2022-10-15T06:45:51;12.32;;;7.93;;
39874;SDS011;25547;52.530;13.194;2022-10-15T06:48:18;14.48;;;8.23;;
39874;SDS011;25547;52.530;13.194;2022-10-15T06:50:44;15.90;;;9.55;;
39874;SDS011;25547;52.530;13.194;2022-10-15T06:53:09;12.23;;;8.45;;
39874;SDS011;25547;52.530;13.194;2022-10-15T06:55:35;15.10;;;9.95;;
39874;SDS011;25547;52.530;13.194;2022-10-15T06:58:03;16.80;;;10.02;;
39874;SDS011;25547;52.530;13.194;2022-10-15T07:00:29;10.52;;;7.10;;
39874;SDS011;25547;52.530;13.194;2022-10-15T07:03:01;19.83;;;11.07;;
39874;SDS011;25547;52.530;13.194;2022-10-15T07:05:27;12.80;;;9.07;;
39874;SDS011;25547;52.530;13.194;2022-10-15T07:07:53;25.17;;;14.05;;
39874;SDS011;25547;52.530;13.194;2022-10-15T07:10:21;15.25;;;9.50;;
39874;SDS011;25547;52.530;13.194;2022-10-15T07:12:47;15.32;;;8.55;;
39874;SDS011;25547;52.530;13.194;2022-10-15T07:15:13;12.93;;;8.77;;
39874;SDS011;25547;52.530;13.194;2022-10-15T07:17:44;15.50;;;7.82;;
39874;SDS011;25547;52.530;13.194;2022-10-15T07:20:20;11.90;;;8.52;;
39874;SDS011;25547;52.530;13.194;2022-10-15T07:22:46;14.70;;;8.05;;
39874;SDS011;25547;52.530;13.194;2022-10-15T07:25:14;11.70;;;7.57;;
39874;SDS011;25547;52.530;13.194;2022-10-15T07:27:40;13.73;;;9.00;;
39874;SDS011;25547;52.530;13.194;2022-10-15T07:30:06;11.90;;;7.75;;
39874;SDS011;25547;52.530;13.194;2022-10-15T07:32:32;13.20;;;7.55;;
39874;SDS011;25547;52.530;13.194;2022-10-15T07:34:59;10.80;;;7.22;;
39874;SDS011;25547;52.530;13.194;2022-10-15T07:37:26;12.02;;;6.88;;
39874;SDS011;25547;52.530;13.194;2022-10-15T07:39:55;10.05;;;6.63;;
39874;SDS011;25547;52.530;13.194;2022-10-15T07:42:21;10.48;;;6.95;;
39874;SDS011;25547;52.530;13.194;2022-10-15T07:44:46;11.43;;;7.07;;
39874;SDS011;25547;52.530;13.194;2022-10-15T07:47:12;13.13;;;6.90;;
39874;SDS011;25547;52.530;13.194;2022-10-15T07:49:40;12.43;;;7.53;;
39874;SDS011;25547;52.530;13.194;2022-10-15T07:52:05;12.45;;;7.13;;
39874;SDS011;25547;52.530;13.194;2022-10-15T07:54:35;6.03;;;5.25;;
39874;SDS011;25547;52.530;13.194;2022-10-15T07:57:00;7.88;;;5.00;;
39874;SDS011;25547;52.530;13.194;2022-10-15T07:59:26;5.20;;;4.70;;
39874;SDS011;25547;52.530;13.194;2022-10-15T08:01:51;6.07;;;4.82;;
39874;SDS011;25547;52.530;13.194;2022-10-15T08:04:17;8.90;;;4.60;;
39874;SDS011;25547;52.530;13.194;2022-10-15T08:06:44;11.38;;;4.25;;
39874;SDS011;25547;52.530;13.194;2022-10-15T08:09:10;5.28;;;3.85;;
39874;SDS011;25547;52.530;13.194;2022-10-15T08:11:38;5.22;;;4.00;;
39874;SDS011;25547;52.530;13.194;2022-10-15T08:14:04;5.70;;;3.90;;
39874;SDS011;25547;52.530;13.194;2022-10-15T08:16:29;5.68;;;4.40;;
39874;SDS011;25547;52.530;13.194;2022-10-15T08:18:56;7.18;;;4.18;;
39874;SDS011;25547;52.530;13.194;2022-10-15T08:21:22;8.57;;;4.97;;
39874;SDS011;25547;52.530;13.194;2022-10-15T08:23:47;4.47;;;3.55;;
39874;SDS011;25547;52.530;13.194;2022-10-15T08:26:13;4.47;;;3.35;;
39874;SDS011;25547;52.530;13.194;2022-10-15T08:28:38;5.88;;;4.13;;
39874;SDS011;25547;52.530;13.194;2022-10-15T08:31:06;5.10;;;3.92;;
39874;SDS011;25547;52.530;13.194;2022-10-15T08:33:34;8.05;;;3.90;;
39874;SDS011;25547;52.530;13.194;2022-10-15T08:36:02;4.28;;;3.28;;
39874;SDS011;25547;52.530;13.194;2022-10-15T08:38:29;7.68;;;2.75;;
39874;SDS011;25547;52.530;13.194;2022-10-15T08:40:59;5.75;;;2.80;;
39874;SDS011;25547;52.530;13.194;2022-10-15T08:43:33;4.40;;;3.08;;
39874;SDS011;25547;52.530;13.194;2022-10-15T08:46:00;4.28;;;2.33;;
39874;SDS011;25547;52.530;13.194;2022-10-15T08:48:34;3.20;;;2.45;;
39874;SDS011;25547;52.530;13.194;2022-10-15T08:51:13;3.83;;;2.05;;
39874;SDS011;25547;52.530;13.194;2022-10-15T08:53:43;8.80;;;3.40;;
39874;SDS011;25547;52.530;13.194;2022-10-15T08:56:17;3.88;;;2.85;;
39874;SDS011;25547;52.530;13.194;2022-10-15T08:58:52;3.78;;;2.70;;
39874;SDS011;25547;52.530;13.194;2022-10-15T09:10:05;6.28;;;4.20;;
39874;SDS011;25547;52.530;13.194;2022-10-15T09:12:47;6.05;;;3.40;;
39874;SDS011;25547;52.530;13.194;2022-10-15T09:15:27;7.18;;;3.75;;
39874;SDS011;25547;52.530;13.194;2022-10-15T09:18:03;7.25;;;3.95;;
39874;SDS011;25547;52.530;13.194;2022-10-15T09:20:33;6.57;;;5.30;;
39874;SDS011;25547;52.530;13.194;2022-10-15T09:23:01;5.57;;;4.03;;
39874;SDS011;25547;52.530;13.194;2022-10-15T09:25:35;9.80;;;3.53;;
39874;SDS011;25547;52.530;13.194;2022-10-15T09:28:08;10.50;;;3.90;;
39874;SDS011;25547;52.530;13.194;2022-10-15T09:30:43;6.63;;;3.88;;
39874;SDS011;25547;52.530;13.194;2022-10-15T09:36:24;7.82;;;3.47;;
39874;SDS011;25547;52.530;13.194;2022-10-15T09:41:59;5.47;;;4.07;;
39874;SDS011;25547;52.530;13.194;2022-10-15T10:04:16;6.07;;;4.50;;
39874;SDS011;25547;52.530;13.194;2022-10-15T10:09:22;6.65;;;3.13;;
39874;SDS011;25547;52.530;13.194;2022-10-15T10:11:57;7.13;;;3.65;;
39874;SDS011;25547;52.530;13.194;2022-10-15T10:14:29;8.38;;;4.68;;
39874;SDS011;25547;52.530;13.194;2022-10-15T10:17:07;5.93;;;4.07;;
39874;SDS011;25547;52.530;13.194;2022-10-15T10:19:45;4.53;;;3.05;;
39874;SDS011;25547;52.530;13.194;2022-10-15T10:22:49;5.03;;;2.70;;
39874;SDS011;25547;52.530;13.194;2022-10-15T10:28:22;5.82;;;3.92;;
39874;SDS011;25547;52.530;13.194;2022-10-15T10:33:26;4.30;;;3.03;;
39874;SDS011;25547;52.530;13.194;2022-10-15T10:35:57;7.28;;;3.10;;
39874;SDS011;25547;52.530;13.194;2022-10-15T10:41:00;4.05;;;2.50;;
39874;SDS011;25547;52.530;13.194;2022-10-15T10:43:31;3.17;;;1.75;;
39874;SDS011;25547;52.530;13.194;2022-10-15T10:51:10;4.20;;;1.90;;
39874;SDS011;25547;52.530;13.194;2022-10-15T10:56:08;3.28;;;2.30;;
39874;SDS011;25547;52.530;13.194;2022-10-15T10:58:37;7.03;;;1.90;;
39874;SDS011;25547;52.530;13.194;2022-10-15T11:01:03;9.85;;;2.65;;
39874;SDS011;25547;52.530;13.194;2022-10-15T11:06:19;2.15;;;1.42;;
39874;SDS011;25547;52.530;13.194;2022-10-15T11:30:48;5.05;;;2.13;;
39874;SDS011;25547;52.530;13.194;2022-10-15T11:46:41;3.75;;;2.40;;
39874;SDS011;25547;52.530;13.194;2022-10-15T11:49:38;5.30;;;2.10;;
39874;SDS011;25547;52.530;13.194;2022-10-15T11:57:18;3.53;;;1.75;;
39874;SDS011;25547;52.530;13.194;2022-10-15T12:02:28;5.53;;;2.63;;
39874;SDS011;25547;52.530;13.194;2022-10-15T12:07:51;4.38;;;2.50;;
39874;SDS011;25547;52.530;13.194;2022-10-15T12:13:09;2.08;;;0.90;;
39874;SDS011;25547;52.530;13.194;2022-10-15T12:23:56;4.32;;;1.17;;
39874;SDS011;25547;52.530;13.194;2022-10-15T12:26:26;2.50;;;1.38;;
39874;SDS011;25547;52.530;13.194;2022-10-15T12:28:56;3.65;;;1.08;;
39874;SDS011;25547;52.530;13.194;2022-10-15T12:31:41;2.50;;;1.17;;
39874;SDS011;25547;52.530;13.194;2022-10-15T12:34:22;3.17;;;1.02;;
39874;SDS011;25547;52.530;13.194;2022-10-15T12:37:02;2.25;;;0.73;;
39874;SDS011;25547;52.530;13.194;2022-10-15T12:39:40;3.75;;;1.45;;
39874;SDS011;25547;52.530;13.194;2022-10-15T12:44:57;5.53;;;2.10;;
39874;SDS011;25547;52.530;13.194;2022-10-15T12:47:45;2.70;;;1.33;;
39874;SDS011;25547;52.530;13.194;2022-10-15T12:50:23;3.67;;;2.10;;
39874;SDS011;25547;52.530;13.194;2022-10-15T12:55:29;3.90;;;1.10;;
39874;SDS011;25547;52.530;13.194;2022-10-15T12:58:05;2.40;;;1.27;;
39874;SDS011;25547;52.530;13.194;2022-10-15T13:00:49;6.70;;;3.55;;
39874;SDS011;25547;52.530;13.194;2022-10-15T13:06:11;3.55;;;0.85;;
39874;SDS011;25547;52.530;13.194;2022-10-15T13:11:54;3.45;;;0.98;;
39874;SDS011;25547;52.530;13.194;2022-10-15T13:16:58;4.80;;;1.98;;
39874;SDS011;25547;52.530;13.194;2022-10-15T13:19:30;2.08;;;0.73;;
39874;SDS011;25547;52.530;13.194;2022-10-15T13:22:18;3.65;;;0.95;;
39874;SDS011;25547;52.530;13.194;2022-10-15T13:24:46;2.63;;;0.30;;
39874;SDS011;25547;52.530;13.194;2022-10-15T13:27:22;2.42;;;0.50;;
39874;SDS011;25547;52.530;13.194;2022-10-15T13:32:21;1.67;;;0.50;;
39874;SDS011;25547;52.530;13.194;2022-10-15T13:34:50;2.10;;;0.35;;
39874;SDS011;25547;52.530;13.194;2022-10-15T13:37:19;2.17;;;0.40;;
39874;SDS011;25547;52.530;13.194;2022-10-15T13:39:51;1.30;;;0.20;;
39874;SDS011;25547;52.530;13.194;2022-10-15T13:45:22;1.00;;;0.10;;
39874;SDS011;25547;52.530;13.194;2022-10-15T13:47:46;2.67;;;0.40;;
39874;SDS011;25547;52.530;13.194;2022-10-15T13:52:43;0.90;;;0.20;;
39874;SDS011;25547;52.530;13.194;2022-10-15T13:55:35;16.15;;;8.55;;
39874;SDS011;25547;52.530;13.194;2022-10-15T13:58:05;1.35;;;0.20;;
39874;SDS011;25547;52.530;13.194;2022-10-15T14:00:53;1.77;;;0.20;;
39874;SDS011;25547;52.530;13.194;2022-10-15T14:03:24;1.85;;;0.20;;
39874;SDS011;25547;52.530;13.194;2022-10-15T14:05:52;1.60;;;0.55;;
39874;SDS011;25547;52.530;13.194;2022-10-15T14:08:26;1.00;;;0.20;;
39874;SDS011;25547;52.530;13.194;2022-10-15T14:10:59;1.38;;;0.30;;
39874;SDS011;25547;52.530;13.194;2022-10-15T14:13:25;3.42;;;0.20;;
39874;SDS011;25547;52.530;13.194;2022-10-15T14:19:10;3.38;;;0.50;;
39874;SDS011;25547;52.530;13.194;2022-10-15T14:21:43;2.13;;;0.40;;
39874;SDS011;25547;52.530;13.194;2022-10-15T14:26:44;1.63;;;0.55;;
39874;SDS011;25547;52.530;13.194;2022-10-15T14:31:53;2.08;;;0.50;;
39874;SDS011;25547;52.530;13.194;2022-10-15T14:37:00;2.15;;;0.10;;
39874;SDS011;25547;52.530;13.194;2022-10-15T14:39:35;1.13;;;0.20;;
39874;SDS011;25547;52.530;13.194;2022-10-15T14:42:04;0.80;;;0.20;;
39874;SDS011;25547;52.530;13.194;2022-10-15T14:44:46;3.70;;;0.20;;
39874;SDS011;25547;52.530;13.194;2022-10-15T14:49:57;1.20;;;0.30;;
39874;SDS011;25547;52.530;13.194;2022-10-15T14:52:26;2.47;;;0.20;;
39874;SDS011;25547;52.530;13.194;2022-10-15T14:57:35;1.42;;;0.22;;
39874;SDS011;25547;52.530;13.194;2022-10-15T15:02:50;0.70;;;0.10;;
39874;SDS011;25547;52.530;13.194;2022-10-15T15:05:22;1.92;;;0.10;;
39874;SDS011;25547;52.530;13.194;2022-10-15T15:07:49;0.65;;;0.10;;
39874;SDS011;25547;52.530;13.194;2022-10-15T15:10:17;0.70;;;0.10;;
39874;SDS011;25547;52.530;13.194;2022-10-15T15:12:51;3.78;;;1.30;;
39874;SDS011;25547;52.530;13.194;2022-10-15T15:15:19;3.65;;;0.45;;
39874;SDS011;25547;52.530;13.194;2022-10-15T15:17:51;1.60;;;0.20;;
39874;SDS011;25547;52.530;13.194;2022-10-15T15:20:17;1.80;;;0.20;;
39874;SDS011;25547;52.530;13.194;2022-10-15T15:22:44;0.70;;;0.10;;
39874;SDS011;25547;52.530;13.194;2022-10-15T15:25:14;0.85;;;0.10;;
39874;SDS011;25547;52.530;13.194;2022-10-15T15:27:45;1.45;;;0.10;;
39874;SDS011;25547;52.530;13.194;2022-10-15T15:30:15;4.32;;;0.40;;
39874;SDS011;25547;52.530;13.194;2022-10-15T15:32:45;1.30;;;0.20;;
39874;SDS011;25547;52.530;13.194;2022-10-15T15:35:16;2.63;;;0.30;;
39874;SDS011;25547;52.530;13.194;2022-10-15T15:37:46;1.27;;;0.10;;
39874;SDS011;25547;52.530;13.194;2022-10-15T15:40:14;3.15;;;0.40;;
39874;SDS011;25547;52.530;13.194;2022-10-15T15:42:42;3.50;;;0.20;;
39874;SDS011;25547;52.530;13.194;2022-10-15T15:45:15;1.75;;;0.20;;
39874;SDS011;25547;52.530;13.194;2022-10-15T15:47:48;3.20;;;0.28;;
39874;SDS011;25547;52.530;13.194;2022-10-15T15:50:15;2.17;;;0.20;;
39874;SDS011;25547;52.530;13.194;2022-10-15T15:52:46;2.88;;;0.17;;
39874;SDS011;25547;52.530;13.194;2022-10-15T15:55:12;1.35;;;0.20;;
39874;SDS011;25547;52.530;13.194;2022-10-15T15:57:38;2.22;;;0.68;;
39874;SDS011;25547;52.530;13.194;2022-10-15T16:00:06;2.00;;;0.32;;
39874;SDS011;25547;52.530;13.194;2022-10-15T16:02:33;2.45;;;0.22;;
39874;SDS011;25547;52.530;13.194;2022-10-15T16:05:03;1.70;;;0.47;;
39874;SDS011;25547;52.530;13.194;2022-10-15T16:07:32;2.45;;;0.30;;
39874;SDS011;25547;52.530;13.194;2022-10-15T16:09:58;3.28;;;0.43;;
39874;SDS011;25547;52.530;13.194;2022-10-15T16:12:26;1.52;;;0.20;;
39874;SDS011;25547;52.530;13.194;2022-10-15T16:14:52;2.25;;;0.40;;
39874;SDS011;25547;52.530;13.194;2022-10-15T16:17:18;3.97;;;0.60;;
39874;SDS011;25547;52.530;13.194;2022-10-15T16:19:44;46.03;;;26.23;;
39874;SDS011;25547;52.530;13.194;2022-10-15T16:22:09;5.43;;;1.85;;
39874;SDS011;25547;52.530;13.194;2022-10-15T16:24:39;4.47;;;1.67;;
39874;SDS011;25547;52.530;13.194;2022-10-15T16:27:05;1.52;;;0.60;;
39874;SDS011;25547;52.530;13.194;2022-10-15T16:29:30;3.10;;;0.90;;
39874;SDS011;25547;52.530;13.194;2022-10-15T16:31:56;2.92;;;0.50;;
39874;SDS011;25547;52.530;13.194;2022-10-15T16:34:21;4.30;;;0.63;;
39874;SDS011;25547;52.530;13.194;2022-10-15T16:36:48;1.70;;;0.30;;
39874;SDS011;25547;52.530;13.194;2022-10-15T16:39:14;2.75;;;0.82;;
39874;SDS011;25547;52.530;13.194;2022-10-15T16:41:40;3.15;;;0.70;;
39874;SDS011;25547;52.530;13.194;2022-10-15T16:44:06;2.42;;;0.80;;
39874;SDS011;25547;52.530;13.194;2022-10-15T16:46:31;4.25;;;1.70;;
39874;SDS011;25547;52.530;13.194;2022-10-15T16:48:59;3.05;;;0.93;;
39874;SDS011;25547;52.530;13.194;2022-10-15T16:51:25;4.93;;;0.93;;
39874;SDS011;25547;52.530;13.194;2022-10-15T16:53:50;4.38;;;0.93;;
39874;SDS011;25547;52.530;13.194;2022-10-15T16:56:20;3.35;;;0.60;;
39874;SDS011;25547;52.530;13.194;2022-10-15T16:58:48;9.55;;;2.20;;
39874;SDS011;25547;52.530;13.194;2022-10-15T17:01:17;3.25;;;1.08;;
39874;SDS011;25547;52.530;13.194;2022-10-15T17:03:47;2.63;;;0.77;;
39874;SDS011;25547;52.530;13.194;2022-10-15T17:06:16;5.15;;;0.90;;
39874;SDS011;25547;52.530;13.194;2022-10-15T17:11:12;5.38;;;1.40;;
39874;SDS011;25547;52.530;13.194;2022-10-15T17:13:41;4.93;;;1.30;;
39874;SDS011;25547;52.530;13.194;2022-10-15T17:16:14;3.92;;;1.02;;
39874;SDS011;25547;52.530;13.194;2022-10-15T17:18:45;3.22;;;0.60;;
39874;SDS011;25547;52.530;13.194;2022-10-15T17:21:12;8.05;;;3.97;;
39874;SDS011;25547;52.530;13.194;2022-10-15T17:23:39;23.67;;;11.40;;
39874;SDS011;25547;52.530;13.194;2022-10-15T17:26:15;11.07;;;3.17;;
39874;SDS011;25547;52.530;13.194;2022-10-15T17:28:43;15.50;;;9.23;;
39874;SDS011;25547;52.530;13.194;2022-10-15T17:31:13;4.60;;;1.23;;
39874;SDS011;25547;52.530;13.194;2022-10-15T17:33:41;2.58;;;1.00;;
39874;SDS011;25547;52.530;13.194;2022-10-15T17:36:08;1.95;;;0.57;;
39874;SDS011;25547;52.530;13.194;2022-10-15T17:38:36;2.35;;;0.70;;